Clayton, Washington
Current Conditions -  °F | °C
As of 5:01 AM on Friday 19 Dec 2014 (Local Time) from KDEW Reporting Station
Light Rain Light Rain  
Wind Chill: 36°   Ceiling: 2400
Heat Index: 36°   Visibility: 2.5mi
Dew Point: 36°   Wind: 0mph
Humidity: 100%   Direction: NA
Pressure: 29.89"   Gusts: NA
Location:  47.99°N, 117.56°W
Report Text: KDEW 191301Z AUTO 00000KT 2 1/2SM -RA BR OVC024 02/02 A2989 RMK AO2 P0000 T00220022
Loading
Personal Weather Stations






























Interactive Weather Map New forecast layout! Learn more

10-Day Weather Forecast

Advertisements
Track Severe Weather on mobile